createdAt,value
2024-04-24T00:02:01.214Z,10.54
2024-04-24T00:04:28.983Z,12.50
2024-04-24T00:06:56.729Z,14.01
2024-04-24T00:09:24.402Z,13.47
2024-04-24T00:11:52.410Z,12.59
2024-04-24T00:14:21.663Z,11.96
2024-04-24T00:16:49.372Z,11.53
2024-04-24T00:19:17.059Z,11.23
2024-04-24T00:21:44.742Z,10.99
2024-04-24T00:24:16.783Z,10.78
2024-04-24T00:26:44.847Z,10.57
2024-04-24T00:29:12.516Z,10.38
2024-04-24T00:31:40.186Z,10.56
2024-04-24T00:34:08.734Z,12.44
2024-04-24T00:36:36.404Z,13.99
2024-04-24T00:39:04.113Z,13.46
2024-04-24T00:41:31.766Z,12.57
2024-04-24T00:43:59.516Z,11.94
2024-04-24T00:46:29.852Z,11.50
2024-04-24T00:48:59.665Z,11.18
2024-04-24T00:51:28.606Z,10.92
2024-04-24T00:53:56.343Z,10.70
2024-04-24T00:56:24.545Z,10.50
2024-04-24T00:58:52.863Z,10.32
2024-04-24T01:01:21.306Z,10.57
2024-04-24T01:03:49.536Z,12.52
2024-04-24T01:06:17.249Z,13.95
2024-04-24T01:08:44.964Z,13.39
2024-04-24T01:11:12.872Z,12.46
2024-04-24T01:13:40.658Z,11.80
2024-04-24T01:16:17.780Z,11.35
2024-04-24T01:19:08.205Z,10.99
2024-04-24T01:22:01.856Z,10.68
2024-04-24T01:24:37.383Z,10.43
2024-04-24T01:27:05.275Z,10.24
2024-04-24T01:29:33.268Z,10.49
2024-04-24T01:32:01.099Z,12.49
2024-04-24T01:34:28.799Z,13.98
2024-04-24T01:36:56.509Z,13.42
2024-04-24T01:39:24.263Z,12.50
2024-04-24T01:41:52.033Z,11.85
2024-04-24T01:44:19.746Z,11.40
2024-04-24T01:46:47.647Z,11.08
2024-04-24T01:49:15.411Z,10.81
2024-04-24T01:51:43.174Z,10.60
2024-04-24T01:54:10.824Z,10.41
2024-04-24T01:56:38.603Z,10.65
2024-04-24T01:59:06.326Z,12.61
2024-04-24T02:01:34.024Z,14.04
2024-04-24T02:04:01.828Z,13.43
2024-04-24T02:06:29.484Z,12.50
2024-04-24T02:08:57.320Z,11.85
2024-04-24T02:11:25.057Z,11.41
2024-04-24T02:13:53.033Z,11.08
2024-04-24T02:16:20.698Z,10.81
2024-04-24T02:18:48.527Z,10.58
2024-04-24T02:21:16.301Z,10.37
2024-04-24T02:23:43.973Z,10.67
2024-04-24T02:26:12.114Z,12.68
2024-04-24T02:28:39.867Z,14.12
2024-04-24T02:31:07.632Z,13.50
2024-04-24T02:33:35.856Z,12.55
2024-04-24T02:36:03.969Z,11.87
2024-04-24T02:38:31.678Z,11.41
2024-04-24T02:40:59.561Z,11.06
2024-04-24T02:43:27.400Z,10.78
2024-04-24T02:45:55.884Z,10.53
2024-04-24T02:48:23.764Z,10.70
2024-04-24T02:50:51.495Z,12.63
2024-04-24T02:53:19.235Z,14.11
2024-04-24T02:55:47.155Z,13.51
2024-04-24T02:58:14.791Z,12.54
2024-04-24T03:00:42.483Z,11.82
2024-04-24T03:03:10.381Z,11.31
2024-04-24T03:05:38.355Z,10.93
2024-04-24T03:08:06.260Z,10.61
2024-04-24T03:10:33.903Z,10.70
2024-04-24T03:13:01.582Z,12.57
2024-04-24T03:15:29.202Z,14.03
2024-04-24T03:17:57.028Z,13.44
2024-04-24T03:20:24.939Z,12.47
2024-04-24T03:22:52.828Z,11.76
2024-04-24T03:25:20.516Z,11.26
2024-04-24T03:27:48.272Z,10.88
2024-04-24T03:30:15.978Z,10.58
2024-04-24T03:32:43.831Z,10.73
2024-04-24T03:35:11.694Z,12.65
2024-04-24T03:37:39.892Z,14.09
2024-04-24T03:40:08.193Z,13.47
2024-04-24T03:42:37.864Z,12.50
2024-04-24T03:45:06.030Z,11.81
2024-04-24T03:47:33.939Z,11.33
2024-04-24T03:50:01.840Z,10.96
2024-04-24T03:52:29.619Z,10.66
2024-04-24T03:54:57.302Z,10.78
2024-04-24T03:57:25.065Z,12.66
2024-04-24T03:59:52.779Z,14.09
2024-04-24T04:02:20.554Z,13.50
2024-04-24T04:04:48.335Z,12.54
2024-04-24T04:07:16.195Z,11.83
2024-04-24T04:09:44.788Z,11.32
2024-04-24T04:12:13.555Z,10.91
2024-04-24T04:14:41.642Z,10.57
2024-04-24T04:17:10.216Z,10.84
2024-04-24T04:19:38.397Z,12.83
2024-04-24T04:22:06.161Z,14.19
2024-04-24T04:24:33.945Z,13.55
2024-04-24T04:27:02.112Z,12.58
2024-04-24T04:29:29.976Z,11.88
2024-04-24T04:31:57.791Z,11.39
2024-04-24T04:34:26.306Z,11.02
2024-04-24T04:36:54.200Z,10.74
2024-04-24T04:39:21.887Z,11.58
2024-04-24T04:41:49.707Z,13.56
2024-04-24T04:44:17.606Z,14.22
2024-04-24T04:46:45.515Z,13.25
2024-04-24T04:49:13.586Z,12.33
2024-04-24T04:51:41.317Z,11.68
2024-04-24T04:54:09.015Z,11.21
2024-04-24T04:56:36.800Z,11.38
2024-04-24T04:59:04.508Z,13.24
2024-04-24T05:01:32.291Z,14.36
2024-04-24T05:04:00.032Z,13.48
2024-04-24T05:06:28.208Z,12.37
2024-04-24T05:08:55.913Z,11.56
2024-04-24T05:11:23.740Z,11.43
2024-04-24T05:13:51.611Z,13.16
2024-04-24T05:16:19.382Z,14.39
2024-04-24T05:18:47.501Z,13.59
2024-04-24T05:21:15.278Z,12.49
2024-04-24T05:23:42.983Z,11.69
2024-04-24T05:26:29.087Z,11.53
2024-04-24T05:29:07.778Z,13.41
2024-04-24T05:31:36.998Z,14.41
2024-04-24T05:34:05.339Z,13.38
2024-04-24T05:36:33.393Z,12.35
2024-04-24T05:39:01.177Z,11.63
2024-04-24T05:41:28.936Z,11.10
2024-04-24T05:43:56.691Z,11.38
2024-04-24T05:46:24.403Z,13.27
2024-04-24T05:48:52.257Z,14.38
2024-04-24T05:51:20.142Z,13.51
2024-04-24T05:53:47.830Z,12.43
2024-04-24T05:56:15.674Z,11.60
2024-04-24T05:58:44.811Z,10.97
2024-04-24T06:01:12.537Z,11.27
2024-04-24T06:03:40.278Z,13.19
2024-04-24T06:06:07.974Z,14.19
2024-04-24T06:08:35.699Z,13.27
2024-04-24T06:11:03.630Z,12.18
2024-04-24T06:13:31.444Z,11.39
2024-04-24T06:15:59.186Z,10.80
2024-04-24T06:18:26.954Z,10.80
2024-04-24T06:20:54.668Z,12.56
2024-04-24T06:23:22.469Z,13.95
2024-04-24T06:25:50.225Z,13.43
2024-04-24T06:28:17.986Z,12.28
2024-04-24T06:30:45.686Z,11.36
2024-04-24T06:33:13.691Z,10.76
2024-04-24T06:35:41.691Z,11.54
2024-04-24T06:38:09.655Z,13.35
2024-04-24T06:40:37.539Z,14.25
2024-04-24T06:43:05.312Z,13.33
2024-04-24T06:45:32.964Z,12.13
2024-04-24T06:48:01.167Z,11.67
2024-04-24T06:50:29.176Z,13.17
2024-04-24T06:52:57.247Z,14.57
2024-04-24T06:55:27.175Z,14.18
2024-04-24T06:57:57.555Z,12.99
2024-04-24T07:00:29.149Z,12.06
2024-04-24T07:02:58.039Z,12.00
2024-04-24T07:05:25.820Z,13.73
2024-04-24T07:07:53.654Z,14.80
2024-04-24T07:10:21.418Z,13.91
2024-04-24T07:12:49.495Z,12.77
2024-04-24T07:15:17.327Z,11.95
2024-04-24T07:17:45.421Z,12.44
2024-04-24T07:20:13.338Z,14.28
2024-04-24T07:22:41.092Z,15.02
2024-04-24T07:25:08.777Z,13.99
2024-04-24T07:27:36.564Z,12.88
2024-04-24T07:30:07.012Z,12.07
2024-04-24T07:32:35.002Z,12.52
2024-04-24T07:35:02.995Z,14.35
2024-04-24T07:37:30.879Z,15.14
2024-04-24T07:40:00.902Z,14.17
2024-04-24T07:42:28.651Z,13.11
2024-04-24T07:44:56.370Z,12.33
2024-04-24T07:47:24.348Z,12.60
2024-04-24T07:49:52.364Z,14.37
2024-04-24T07:52:20.034Z,14.92
2024-04-24T07:54:47.771Z,13.86
2024-04-24T07:57:15.448Z,12.87
2024-04-24T07:59:43.425Z,12.17
2024-04-24T08:02:11.124Z,12.32
2024-04-24T08:04:38.843Z,14.14
2024-04-24T08:07:06.621Z,15.19
2024-04-24T08:09:34.243Z,14.34
2024-04-24T08:12:02.146Z,13.24
2024-04-24T08:14:30.441Z,12.49
2024-04-24T08:16:58.368Z,12.39
2024-04-24T08:19:26.012Z,14.10
2024-04-24T08:21:53.782Z,15.24
2024-04-24T08:24:21.420Z,14.40
2024-04-24T08:26:49.159Z,13.35
2024-04-24T08:29:16.926Z,12.60
2024-04-24T08:31:44.742Z,12.07
2024-04-24T08:34:12.513Z,12.86
2024-04-24T08:36:42.989Z,14.71
2024-04-24T08:39:15.843Z,15.11
2024-04-24T08:41:44.258Z,13.95
2024-04-24T08:44:13.882Z,12.97
2024-04-24T08:46:43.644Z,12.27
2024-04-24T08:49:11.835Z,11.98
2024-04-24T08:51:43.128Z,13.44
2024-04-24T08:54:20.091Z,15.02
2024-04-24T08:57:00.272Z,14.55
2024-04-24T08:59:32.858Z,13.37
2024-04-24T09:02:06.159Z,12.56
2024-04-24T09:04:35.963Z,11.94
2024-04-24T09:07:04.736Z,12.18
2024-04-24T09:09:33.371Z,14.26
2024-04-24T09:12:02.904Z,15.03
2024-04-24T09:14:32.624Z,13.97
2024-04-24T09:17:01.883Z,12.90
2024-04-24T09:19:30.438Z,12.18
2024-04-24T09:21:58.146Z,11.66
2024-04-24T09:24:25.919Z,11.64
2024-04-24T09:26:55.578Z,13.37
2024-04-24T09:29:24.037Z,14.89
2024-04-24T09:31:51.880Z,14.39
2024-04-24T09:34:19.798Z,13.28
2024-04-24T09:36:48.699Z,12.42
2024-04-24T09:39:17.962Z,11.83
2024-04-24T09:41:49.475Z,11.83
2024-04-24T09:44:17.445Z,13.61
2024-04-24T09:46:55.663Z,14.82
2024-04-24T09:49:24.185Z,14.01
2024-04-24T09:51:52.041Z,13.00
2024-04-24T09:54:22.494Z,12.32
2024-04-24T09:56:55.392Z,11.82
2024-04-24T09:59:30.726Z,11.38
2024-04-24T10:02:13.166Z,11.59
2024-04-24T10:04:48.509Z,13.72
2024-04-24T10:09:49.264Z,13.95
2024-04-24T10:12:30.606Z,12.94
2024-04-24T10:15:12.829Z,12.18
2024-04-24T10:17:42.941Z,11.66
2024-04-24T10:20:19.522Z,11.80
2024-04-24T10:22:54.946Z,13.79
2024-04-24T10:25:24.280Z,14.89
2024-04-24T10:27:53.178Z,14.00
2024-04-24T10:30:21.613Z,12.91
2024-04-24T10:32:49.541Z,12.08
2024-04-24T10:35:20.540Z,11.49
2024-04-24T10:37:53.795Z,11.59
2024-04-24T10:40:28.697Z,13.53
2024-04-24T10:43:00.365Z,14.79
2024-04-24T10:45:28.888Z,13.98
2024-04-24T10:47:57.479Z,12.97
2024-04-24T10:50:29.328Z,12.25
2024-04-24T10:52:57.578Z,11.73
2024-04-24T10:55:25.474Z,11.71
2024-04-24T10:57:54.690Z,13.42
2024-04-24T11:00:23.915Z,14.66
2024-04-24T11:03:00.439Z,13.89
2024-04-24T11:05:36.868Z,12.88
2024-04-24T11:08:06.111Z,12.19
2024-04-24T11:10:35.146Z,11.73
2024-04-24T11:13:13.982Z,11.90
2024-04-24T11:15:45.353Z,13.85
2024-04-24T11:18:18.794Z,15.05
2024-04-24T11:20:46.689Z,14.30
2024-04-24T11:23:14.661Z,13.26
2024-04-24T11:25:57.992Z,12.52
2024-04-24T11:28:28.031Z,11.96
2024-04-24T11:30:56.276Z,12.00
2024-04-24T11:33:24.651Z,13.81
2024-04-24T11:35:53.548Z,15.05
2024-04-24T11:38:21.385Z,14.29
2024-04-24T11:40:49.187Z,13.28
2024-04-24T11:43:17.839Z,12.56
2024-04-24T11:45:46.207Z,12.06
2024-04-24T11:48:14.078Z,12.17
2024-04-24T11:50:42.024Z,13.99
2024-04-24T11:53:10.025Z,15.23
2024-04-24T11:55:37.745Z,14.54
2024-04-24T11:58:14.977Z,13.52
2024-04-24T12:00:42.906Z,12.70
2024-04-24T12:03:10.954Z,12.13
2024-04-24T12:05:40.115Z,12.00
2024-04-24T12:08:09.795Z,13.62
2024-04-24T12:10:37.662Z,15.21
2024-04-24T12:13:05.596Z,14.84
2024-04-24T12:15:33.339Z,13.77
2024-04-24T12:18:01.166Z,12.93
2024-04-24T12:20:28.978Z,12.31
2024-04-24T12:22:56.784Z,11.85
2024-04-24T12:25:24.456Z,12.07
2024-04-24T12:27:52.317Z,13.94
2024-04-24T12:30:20.099Z,15.32
2024-04-24T12:32:48.375Z,14.76
2024-04-24T12:35:16.200Z,13.73
2024-04-24T12:37:43.931Z,12.99
2024-04-24T12:40:13.847Z,12.48
2024-04-24T12:42:41.708Z,12.10
2024-04-24T12:45:09.767Z,12.10
2024-04-24T12:47:37.879Z,13.85
2024-04-24T12:50:06.022Z,15.39
2024-04-24T12:52:34.053Z,14.86
2024-04-24T12:55:01.798Z,13.74
2024-04-24T12:57:29.492Z,12.94
2024-04-24T12:59:57.207Z,12.39
2024-04-24T13:02:25.098Z,12.00
2024-04-24T13:04:52.890Z,12.17
2024-04-24T13:07:20.582Z,14.05
2024-04-24T13:09:49.463Z,15.42
2024-04-24T13:12:20.390Z,14.75
2024-04-24T13:14:49.769Z,13.69
2024-04-24T13:17:17.628Z,13.01
2024-04-24T13:19:45.520Z,12.52
2024-04-24T13:22:13.217Z,12.14
2024-04-24T13:24:40.927Z,11.83
2024-04-24T13:27:08.587Z,11.99
2024-04-24T13:29:36.281Z,13.84
2024-04-24T13:32:04.071Z,15.25
2024-04-24T13:34:31.972Z,14.66
2024-04-24T13:36:59.744Z,13.68
2024-04-24T13:39:27.389Z,12.97
2024-04-24T13:41:55.162Z,12.46
2024-04-24T13:44:22.900Z,12.07
2024-04-24T13:46:50.622Z,11.74
2024-04-24T13:49:18.361Z,11.92
2024-04-24T13:51:46.151Z,13.72
2024-04-24T13:54:16.350Z,15.33
2024-04-24T13:56:44.905Z,15.75
2024-04-24T13:59:14.033Z,14.73
2024-04-24T14:01:41.950Z,13.76
2024-04-24T14:04:09.805Z,13.09
2024-04-24T14:06:37.618Z,12.60
2024-04-24T14:09:05.422Z,12.20
2024-04-24T14:11:33.175Z,12.38
2024-04-24T14:14:01.121Z,14.17
2024-04-24T14:16:28.910Z,15.31
2024-04-24T14:18:56.684Z,14.59
2024-04-24T14:21:24.358Z,13.62
2024-04-24T14:23:52.061Z,12.90
2024-04-24T14:26:20.232Z,12.38
2024-04-24T14:28:48.019Z,11.98
2024-04-24T14:31:15.856Z,12.15
2024-04-24T14:33:43.639Z,13.98
2024-04-24T14:36:11.434Z,15.48
2024-04-24T14:38:39.184Z,15.34
2024-04-24T14:41:08.899Z,14.24
2024-04-24T14:43:37.566Z,13.31
2024-04-24T14:46:06.141Z,12.67
2024-04-24T14:48:33.937Z,12.23
2024-04-24T14:51:02.214Z,11.89
2024-04-24T14:53:29.908Z,12.04
2024-04-24T14:55:58.888Z,13.90
2024-04-24T14:58:26.823Z,15.46
2024-04-24T15:00:55.596Z,15.07
2024-04-24T15:03:24.958Z,14.04
2024-04-24T15:05:52.807Z,13.26
2024-04-24T15:08:20.669Z,12.72
2024-04-24T15:10:49.899Z,12.31
2024-04-24T15:13:17.645Z,11.94
2024-04-24T15:15:47.291Z,12.06
2024-04-24T15:18:15.116Z,13.90
2024-04-24T15:20:42.954Z,15.26
2024-04-24T15:23:12.318Z,14.61
2024-04-24T15:25:43.390Z,13.58
2024-04-24T15:28:11.109Z,12.80
2024-04-24T15:30:38.805Z,12.26
2024-04-24T15:33:06.817Z,11.88
2024-04-24T15:35:34.875Z,12.08
2024-04-24T15:38:02.693Z,13.92
2024-04-24T15:40:30.418Z,15.44
2024-04-24T15:42:58.153Z,15.11
2024-04-24T15:45:27.015Z,14.04
2024-04-24T15:47:54.933Z,13.19
2024-04-24T15:50:22.756Z,12.61
2024-04-24T15:52:50.475Z,12.18
2024-04-24T15:55:18.133Z,12.60
2024-04-24T15:57:45.804Z,14.53
2024-04-24T16:00:13.847Z,15.69
2024-04-24T16:02:44.102Z,14.98
2024-04-24T16:05:14.458Z,14.00
2024-04-24T16:07:42.472Z,13.32
2024-04-24T16:10:10.765Z,12.83
2024-04-24T16:12:38.511Z,12.87
2024-04-24T16:15:06.759Z,14.58
2024-04-24T16:17:34.569Z,15.78
2024-04-24T16:20:02.721Z,15.06
2024-04-24T16:22:30.670Z,14.03
2024-04-24T16:24:58.449Z,13.22
2024-04-24T16:27:26.154Z,12.64
2024-04-24T16:29:53.835Z,12.65
2024-04-24T16:32:22.300Z,14.34
2024-04-24T16:34:50.110Z,15.79
2024-04-24T16:37:17.895Z,15.47
2024-04-24T16:39:47.004Z,14.40
2024-04-24T16:42:14.787Z,13.55
2024-04-24T16:44:42.549Z,12.97
2024-04-24T16:47:11.764Z,12.96
2024-04-24T16:49:40.380Z,14.67
2024-04-24T16:52:11.150Z,15.89
2024-04-24T16:54:39.568Z,15.17
2024-04-24T16:57:08.220Z,14.16
2024-04-24T16:59:36.093Z,13.39
2024-04-24T17:02:03.849Z,12.83
2024-04-24T17:04:33.176Z,12.88
2024-04-24T17:07:00.990Z,14.63
2024-04-24T17:09:29.636Z,16.07
2024-04-24T17:11:58.044Z,15.75
2024-04-24T17:14:27.599Z,14.64
2024-04-24T17:16:55.405Z,13.76
2024-04-24T17:19:23.304Z,13.13
2024-04-24T17:21:51.312Z,13.52
2024-04-24T17:24:21.863Z,15.25
2024-04-24T17:26:52.843Z,16.20
2024-04-24T17:29:20.720Z,15.31
2024-04-24T17:31:48.424Z,14.22
2024-04-24T17:34:21.471Z,13.41
2024-04-24T17:36:49.113Z,13.31
2024-04-24T17:39:17.509Z,14.89
2024-04-24T17:41:45.411Z,16.25
2024-04-24T17:44:13.351Z,16.10
2024-04-24T17:46:41.251Z,14.86
2024-04-24T17:49:08.983Z,13.84
2024-04-24T17:51:37.467Z,13.61
2024-04-24T17:54:05.323Z,15.15
2024-04-24T17:56:34.322Z,16.46
2024-04-24T17:59:02.165Z,16.17
2024-04-24T18:01:29.913Z,14.96
2024-04-24T18:03:57.609Z,13.98
2024-04-24T18:06:25.446Z,13.90
2024-04-24T18:08:53.149Z,15.42
2024-04-24T18:11:21.290Z,16.55
2024-04-24T18:13:49.195Z,16.00
2024-04-24T18:16:16.933Z,14.84
2024-04-24T18:18:45.163Z,13.98
2024-04-24T18:21:12.929Z,14.21
2024-04-24T18:23:40.815Z,15.86
2024-04-24T18:26:08.586Z,16.73
2024-04-24T18:28:36.342Z,15.80
2024-04-24T18:31:04.225Z,14.68
2024-04-24T18:33:32.013Z,13.94
2024-04-24T18:36:00.241Z,14.76
2024-04-24T18:38:28.389Z,16.32
2024-04-24T18:40:56.201Z,16.64
2024-04-24T18:43:23.902Z,15.48
2024-04-24T18:45:51.627Z,14.37
2024-04-24T18:48:20.597Z,13.57
2024-04-24T18:50:48.411Z,14.18
2024-04-24T18:53:16.197Z,15.82
2024-04-24T18:55:44.850Z,16.59
2024-04-24T18:58:12.656Z,15.59
2024-04-24T19:00:40.913Z,14.41
2024-04-24T19:03:08.786Z,13.84
2024-04-24T19:05:36.683Z,15.17
2024-04-24T19:08:05.124Z,16.49
2024-04-24T19:10:32.843Z,16.15
2024-04-24T19:13:00.563Z,14.89
2024-04-24T19:15:29.391Z,13.88
2024-04-24T19:17:57.171Z,13.68
2024-04-24T19:20:25.259Z,15.24
2024-04-24T19:22:53.181Z,16.55
2024-04-24T19:25:21.012Z,16.23
2024-04-24T19:27:48.774Z,14.98
2024-04-24T19:30:16.588Z,13.98
2024-04-24T19:32:44.471Z,14.24
2024-04-24T19:35:12.390Z,15.85
2024-04-24T19:37:40.270Z,16.64
2024-04-24T19:40:08.635Z,15.66
2024-04-24T19:42:36.436Z,14.52
2024-04-24T19:45:04.471Z,14.09
2024-04-24T19:47:32.196Z,15.51
2024-04-24T19:50:01.163Z,16.75
2024-04-24T19:52:29.031Z,16.24
2024-04-24T19:54:56.715Z,14.97
2024-04-24T19:57:24.373Z,13.97
2024-04-24T19:59:52.115Z,14.12
2024-04-24T20:02:21.240Z,15.66
2024-04-24T20:04:50.109Z,16.40
2024-04-24T20:07:17.816Z,15.42
2024-04-24T20:09:46.237Z,14.31
2024-04-24T20:12:14.011Z,13.59
2024-04-24T20:14:42.000Z,14.47
2024-04-24T20:17:10.112Z,15.93
2024-04-24T20:19:38.171Z,15.92
2024-04-24T20:22:06.105Z,14.67
2024-04-24T20:24:33.827Z,13.63
2024-04-24T20:27:01.522Z,13.74
2024-04-24T20:29:29.400Z,15.40
2024-04-24T20:31:57.153Z,16.09
2024-04-24T20:34:28.322Z,15.05
2024-04-24T20:36:56.398Z,13.88
2024-04-24T20:39:24.228Z,13.44
2024-04-24T20:41:51.863Z,14.78
2024-04-24T20:44:22.104Z,15.90
2024-04-24T20:46:49.873Z,15.21
2024-04-24T20:49:17.612Z,14.04
2024-04-24T20:51:45.460Z,13.15
2024-04-24T20:54:13.270Z,13.51
2024-04-24T20:56:40.959Z,15.19
2024-04-24T20:59:09.208Z,15.96
2024-04-24T21:01:38.518Z,14.98
2024-04-24T21:04:06.979Z,13.84
2024-04-24T21:06:36.187Z,12.99
2024-04-24T21:09:03.926Z,12.81
2024-04-24T21:11:31.742Z,14.38
2024-04-24T21:13:59.546Z,15.63
2024-04-24T21:16:27.283Z,15.03
2024-04-24T21:18:55.461Z,13.84
2024-04-24T21:21:23.561Z,12.94
2024-04-24T21:23:52.086Z,12.84
2024-04-24T21:26:19.907Z,14.50
2024-04-24T21:28:48.274Z,15.61
2024-04-24T21:31:16.002Z,14.75
2024-04-24T21:33:43.740Z,13.60
2024-04-24T21:36:11.490Z,12.73
2024-04-24T21:38:39.386Z,12.64
2024-04-24T21:41:20.135Z,14.29
2024-04-24T21:43:49.274Z,15.59
2024-04-24T21:46:19.569Z,14.95
2024-04-24T21:48:47.427Z,13.71
2024-04-24T21:51:15.192Z,12.71
2024-04-24T21:53:43.120Z,12.07
2024-04-24T21:56:10.917Z,13.07
2024-04-24T21:58:39.947Z,14.62
2024-04-24T22:01:09.002Z,14.59
2024-04-24T22:03:36.988Z,13.35
2024-04-24T22:06:05.715Z,12.33
2024-04-24T22:08:33.519Z,12.16
2024-04-24T22:11:01.502Z,13.75
2024-04-24T22:13:29.413Z,14.72
2024-04-24T22:15:57.110Z,13.75
2024-04-24T22:18:24.995Z,12.60
2024-04-24T22:20:52.833Z,11.74
2024-04-24T22:23:20.548Z,11.69
2024-04-24T22:25:48.310Z,13.39
2024-04-24T22:28:16.068Z,14.46
2024-04-24T22:30:43.940Z,13.54
2024-04-24T22:33:11.680Z,12.39
2024-04-24T22:35:39.801Z,11.55
2024-04-24T22:38:09.402Z,12.00
2024-04-24T22:40:37.257Z,13.78
2024-04-24T22:43:05.085Z,14.50
2024-04-24T22:45:32.868Z,13.46
2024-04-24T22:48:00.743Z,12.36
2024-04-24T22:50:28.715Z,11.52
2024-04-24T22:52:56.507Z,11.42
2024-04-24T22:55:24.220Z,13.12
2024-04-24T22:57:51.894Z,14.52
2024-04-24T23:00:19.712Z,13.98
2024-04-24T23:02:47.819Z,12.80
2024-04-24T23:05:15.870Z,11.87
2024-04-24T23:07:43.731Z,11.76
2024-04-24T23:10:11.595Z,13.45
2024-04-24T23:12:39.351Z,14.52
2024-04-24T23:15:07.291Z,13.60
2024-04-24T23:17:35.112Z,12.49
2024-04-24T23:20:03.228Z,11.61
2024-04-24T23:22:31.029Z,11.56
2024-04-24T23:24:58.877Z,13.27
2024-04-24T23:27:26.519Z,14.31
2024-04-24T23:29:54.270Z,13.39
2024-04-24T23:32:22.010Z,12.23
2024-04-24T23:34:49.796Z,11.37
2024-04-24T23:37:17.443Z,11.50
2024-04-24T23:39:45.202Z,13.21
2024-04-24T23:42:12.838Z,14.12
2024-04-24T23:44:40.619Z,13.23
2024-04-24T23:47:08.412Z,12.13
2024-04-24T23:49:36.232Z,11.34
2024-04-24T23:52:04.045Z,12.06
2024-04-24T23:54:31.772Z,13.72
2024-04-24T23:56:59.414Z,14.30
2024-04-24T23:59:27.132Z,13.26
